createdAt,value
2019-01-10T00:01:06.757Z,99.90
2019-01-10T00:03:36.237Z,99.90
2019-01-10T00:06:06.072Z,99.90
2019-01-10T00:08:35.533Z,99.90
2019-01-10T00:11:05.268Z,99.90
2019-01-10T00:13:34.749Z,99.90
2019-01-10T00:16:04.707Z,99.90
2019-01-10T00:18:34.190Z,99.90
2019-01-10T00:21:03.712Z,99.90
2019-01-10T00:23:33.189Z,99.90
2019-01-10T00:26:02.676Z,99.90
2019-01-10T00:28:32.190Z,99.90
2019-01-10T00:31:01.660Z,99.90
2019-01-10T00:33:31.161Z,99.90
2019-01-10T00:36:00.650Z,99.90
2019-01-10T00:38:30.148Z,99.90
2019-01-10T00:40:59.633Z,99.90
2019-01-10T00:43:29.225Z,99.90
2019-01-10T00:45:58.693Z,99.90
2019-01-10T00:48:28.170Z,99.90
2019-01-10T00:50:57.681Z,99.90
2019-01-10T00:53:27.150Z,99.90
2019-01-10T00:55:56.664Z,99.90
2019-01-10T00:58:26.140Z,99.90
2019-01-10T01:00:55.644Z,99.90
2019-01-10T01:03:25.150Z,99.90
2019-01-10T01:05:54.674Z,99.90
2019-01-10T01:08:24.132Z,99.90
2019-01-10T01:10:53.642Z,99.90
2019-01-10T01:13:23.104Z,99.90
2019-01-10T01:15:52.588Z,99.90
2019-01-10T01:18:22.092Z,99.90
2019-01-10T01:20:51.688Z,99.90
2019-01-10T01:23:21.192Z,99.90
2019-01-10T01:25:50.789Z,99.90
2019-01-10T01:28:20.264Z,99.90
2019-01-10T01:30:49.736Z,99.90
2019-01-10T01:33:19.240Z,99.90
2019-01-10T01:35:48.851Z,99.90
2019-01-10T01:38:18.335Z,99.90
2019-01-10T01:40:47.806Z,99.90
2019-01-10T01:43:17.376Z,99.90
2019-01-10T01:45:46.849Z,99.90
2019-01-10T01:48:16.353Z,99.90
2019-01-10T01:50:45.836Z,99.90
2019-01-10T01:53:15.358Z,99.90
2019-01-10T01:55:44.841Z,99.90
2019-01-10T01:58:14.385Z,99.90
2019-01-10T02:00:43.972Z,99.90
2019-01-10T02:03:13.488Z,99.90
2019-01-10T02:05:42.961Z,99.90
2019-01-10T02:08:12.460Z,99.90
2019-01-10T02:10:42.087Z,99.90
2019-01-10T02:13:16.676Z,99.90
2019-01-10T02:15:42.722Z,99.90
2019-01-10T02:18:12.204Z,99.90
2019-01-10T02:20:41.680Z,99.90
2019-01-10T02:23:11.201Z,99.90
2019-01-10T02:25:40.690Z,99.90
2019-01-10T02:28:10.197Z,99.90
2019-01-10T02:30:42.310Z,99.90
2019-01-10T02:33:10.851Z,99.90
2019-01-10T02:35:40.364Z,99.90
2019-01-10T02:38:10.226Z,99.90
2019-01-10T02:40:39.693Z,99.90
2019-01-10T02:43:09.184Z,99.90
2019-01-10T02:45:38.688Z,99.90
2019-01-10T02:48:08.193Z,99.90
2019-01-10T02:50:38.212Z,99.90
2019-01-10T02:53:07.721Z,99.90
2019-01-10T02:55:37.226Z,99.90
2019-01-10T02:58:06.913Z,99.90
2019-01-10T03:00:36.397Z,99.90
2019-01-10T03:03:06.124Z,99.90
2019-01-10T03:05:35.580Z,99.90
2019-01-10T03:08:05.089Z,99.90
2019-01-10T03:10:34.589Z,99.90
2019-01-10T03:13:04.097Z,99.90
2019-01-10T03:15:33.570Z,99.90
2019-01-10T03:18:03.068Z,99.90
2019-01-10T03:20:32.576Z,99.90
2019-01-10T03:23:02.079Z,99.90
2019-01-10T03:25:31.582Z,99.90
2019-01-10T03:28:01.064Z,99.90
2019-01-10T03:30:30.570Z,99.90
2019-01-10T03:33:00.056Z,99.90
2019-01-10T03:35:29.521Z,99.90
2019-01-10T03:37:59.042Z,99.90
2019-01-10T03:40:28.519Z,99.90
2019-01-10T03:42:58.025Z,99.90
2019-01-10T03:45:27.519Z,99.90
2019-01-10T03:47:57.025Z,99.90
2019-01-10T03:50:26.506Z,99.90
2019-01-10T03:52:55.982Z,99.90
2019-01-10T03:55:25.500Z,99.90
2019-01-10T03:57:55.000Z,99.90
2019-01-10T04:00:25.333Z,99.90
2019-01-10T04:02:54.809Z,99.90
2019-01-10T04:05:24.298Z,99.90
2019-01-10T04:07:53.809Z,99.90
2019-01-10T04:10:23.277Z,99.90
2019-01-10T04:12:52.782Z,99.90
2019-01-10T04:15:22.310Z,99.90
2019-01-10T04:17:51.770Z,99.90
2019-01-10T04:20:21.276Z,99.90
2019-01-10T04:22:50.751Z,99.90
2019-01-10T04:25:20.273Z,99.90
2019-01-10T04:27:49.756Z,99.90
2019-01-10T04:30:22.180Z,99.90
2019-01-10T04:32:51.683Z,99.90
2019-01-10T04:35:21.157Z,99.90
2019-01-10T04:37:50.677Z,99.90
2019-01-10T04:40:22.935Z,99.90
2019-01-10T04:42:52.449Z,99.90
2019-01-10T04:45:21.993Z,99.90
2019-01-10T04:47:51.480Z,99.90
2019-01-10T04:50:21.024Z,99.90
2019-01-10T04:52:50.507Z,99.90
2019-01-10T04:55:20.075Z,99.90
2019-01-10T04:57:49.551Z,99.90
2019-01-10T05:00:24.638Z,99.90
2019-01-10T05:02:54.206Z,99.90
2019-01-10T05:05:24.327Z,99.90
2019-01-10T05:07:53.879Z,99.90
2019-01-10T05:10:23.366Z,99.90
2019-01-10T05:12:52.884Z,99.90
2019-01-10T05:15:22.683Z,99.90
2019-01-10T05:17:52.209Z,99.90
2019-01-10T05:20:21.844Z,99.90
2019-01-10T05:22:51.313Z,99.90
2019-01-10T05:25:20.843Z,99.90
2019-01-10T05:27:50.330Z,99.90
2019-01-10T05:30:26.141Z,99.90
2019-01-10T05:32:55.916Z,99.90
2019-01-10T05:35:25.481Z,99.90
2019-01-10T05:38:21.804Z,99.90
2019-01-10T05:41:10.397Z,99.90
2019-01-10T05:43:39.891Z,99.90
2019-01-10T05:46:28.449Z,99.90
2019-01-10T05:49:17.205Z,99.90
2019-01-10T05:52:05.750Z,99.90
2019-01-10T05:54:54.415Z,99.90
2019-01-10T05:57:35.616Z,99.90
2019-01-10T06:00:08.220Z,99.90
2019-01-10T06:02:56.929Z,99.90
2019-01-10T06:05:45.495Z,99.90
2019-01-10T06:08:15.061Z,99.90
2019-01-10T06:11:03.688Z,99.90
2019-01-10T06:13:52.280Z,99.90
2019-01-10T06:16:40.810Z,99.90
2019-01-10T06:19:29.418Z,99.90
2019-01-10T06:22:17.959Z,99.90
2019-01-10T06:25:06.570Z,99.90
2019-01-10T06:27:55.097Z,99.90
2019-01-10T06:30:43.669Z,99.90
2019-01-10T06:33:32.205Z,99.90
2019-01-10T06:36:20.878Z,99.90
2019-01-10T06:38:50.371Z,99.90
2019-01-10T06:41:38.948Z,99.90
2019-01-10T06:44:27.480Z,99.90
2019-01-10T06:47:16.045Z,99.90
2019-01-10T06:49:57.174Z,99.90
2019-01-10T06:52:37.941Z,99.90
2019-01-10T06:55:18.674Z,99.90
2019-01-10T07:00:42.673Z,99.90
2019-01-10T07:03:31.245Z,99.90
2019-01-10T07:06:00.717Z,99.90
2019-01-10T07:08:49.318Z,99.90
2019-01-10T07:11:18.814Z,99.90
2019-01-10T07:13:48.279Z,99.90
2019-01-10T07:16:17.777Z,99.90
2019-01-10T07:18:47.257Z,99.90
2019-01-10T07:21:16.808Z,99.90
2019-01-10T07:23:47.637Z,99.90
2019-01-10T07:26:17.176Z,99.90
2019-01-10T07:28:46.688Z,99.90
2019-01-10T07:31:35.088Z,99.90
2019-01-10T07:34:04.910Z,99.90
2019-01-10T07:36:34.393Z,99.90
2019-01-10T07:39:05.380Z,99.90
2019-01-10T07:41:37.073Z,99.90
2019-01-10T07:44:06.586Z,99.90
2019-01-10T07:46:36.130Z,99.90
2019-01-10T07:49:05.685Z,99.90
2019-01-10T07:51:47.626Z,99.90
2019-01-10T07:54:17.176Z,99.90
2019-01-10T07:56:46.682Z,99.90
2019-01-10T07:59:16.156Z,99.90
2019-01-10T08:01:45.662Z,99.90
2019-01-10T08:04:15.125Z,99.90
2019-01-10T08:06:44.627Z,99.90
2019-01-10T08:09:14.101Z,99.90
2019-01-10T08:11:43.580Z,99.90
2019-01-10T08:14:13.094Z,99.90
2019-01-10T08:16:42.564Z,99.90
2019-01-10T08:19:12.080Z,99.90
2019-01-10T08:21:41.563Z,99.90
2019-01-10T08:24:11.036Z,99.90
2019-01-10T08:26:40.545Z,99.90
2019-01-10T08:29:10.033Z,99.90
2019-01-10T08:31:39.539Z,99.90
2019-01-10T08:34:09.013Z,99.90
2019-01-10T08:36:38.520Z,99.90
2019-01-10T08:39:09.053Z,99.90
2019-01-10T08:41:38.585Z,99.90
2019-01-10T08:44:08.086Z,99.90
2019-01-10T08:46:37.554Z,99.90
2019-01-10T08:49:07.582Z,99.90
2019-01-10T08:51:38.187Z,99.90
2019-01-10T08:54:07.704Z,99.90
2019-01-10T08:56:37.177Z,99.90
2019-01-10T08:59:06.690Z,99.90
2019-01-10T09:01:36.166Z,99.90
2019-01-10T09:04:05.671Z,99.90
2019-01-10T09:06:35.135Z,99.90
2019-01-10T09:09:07.137Z,99.90
2019-01-10T09:11:36.629Z,99.90
2019-01-10T09:14:06.096Z,99.90
2019-01-10T09:16:35.608Z,99.90
2019-01-10T09:19:05.085Z,99.90
2019-01-10T09:21:34.580Z,99.90
2019-01-10T09:24:04.184Z,99.90
2019-01-10T09:26:37.628Z,99.90
2019-01-10T09:29:04.964Z,99.90
2019-01-10T09:31:34.443Z,99.90
2019-01-10T09:34:03.946Z,99.90
2019-01-10T09:36:33.425Z,99.90
2019-01-10T09:39:02.973Z,99.90
2019-01-10T09:41:32.449Z,99.90
2019-01-10T09:44:01.920Z,99.90
2019-01-10T09:46:31.516Z,99.90
2019-01-10T09:49:00.985Z,99.90
2019-01-10T09:51:30.493Z,99.90
2019-01-10T09:53:59.986Z,99.90
2019-01-10T09:56:29.493Z,99.90
2019-01-10T09:58:59.023Z,99.90
2019-01-10T10:01:28.495Z,99.90
2019-01-10T10:03:57.996Z,99.90
2019-01-10T10:06:27.468Z,99.90
2019-01-10T10:08:56.980Z,99.90
2019-01-10T10:11:34.040Z,99.90
2019-01-10T10:13:57.739Z,99.90
2019-01-10T10:16:27.212Z,99.90
2019-01-10T10:18:56.708Z,99.90
2019-01-10T10:21:26.200Z,99.90
2019-01-10T10:23:55.673Z,99.90
2019-01-10T10:26:25.186Z,99.90
2019-01-10T10:28:54.657Z,99.90
2019-01-10T10:31:24.240Z,99.90
2019-01-10T10:33:53.735Z,99.90
2019-01-10T10:36:23.197Z,99.90
2019-01-10T10:38:52.701Z,99.90
2019-01-10T10:41:22.180Z,99.90
2019-01-10T10:43:51.684Z,99.90
2019-01-10T10:46:21.160Z,99.90
2019-01-10T10:48:50.637Z,99.90
2019-01-10T10:51:21.465Z,99.90
2019-01-10T10:53:50.983Z,99.90
2019-01-10T10:56:20.836Z,99.90
2019-01-10T10:58:50.318Z,99.90
2019-01-10T11:01:19.805Z,99.90
2019-01-10T11:03:49.300Z,99.90
2019-01-10T11:06:18.777Z,99.90
2019-01-10T11:08:48.373Z,99.90
2019-01-10T11:11:17.844Z,99.90
2019-01-10T11:13:47.348Z,99.90
2019-01-10T11:16:16.953Z,99.90
2019-01-10T11:18:46.433Z,99.90
2019-01-10T11:21:16.040Z,99.90
2019-01-10T11:23:45.526Z,99.90
2019-01-10T11:26:15.005Z,99.90
2019-01-10T11:28:44.614Z,99.90
2019-01-10T11:31:14.077Z,99.90
2019-01-10T11:33:43.577Z,99.90
2019-01-10T11:36:13.056Z,99.90
2019-01-10T11:38:42.517Z,99.90
2019-01-10T11:41:12.069Z,99.90
2019-01-10T11:43:41.612Z,99.90
2019-01-10T11:46:19.241Z,99.90
2019-01-10T11:48:42.258Z,99.90
2019-01-10T11:51:11.764Z,99.90
2019-01-10T11:53:41.263Z,99.90
2019-01-10T11:56:10.764Z,99.90
2019-01-10T11:58:40.264Z,99.90
2019-01-10T12:01:10.178Z,99.90
2019-01-10T12:03:39.650Z,99.90
2019-01-10T12:06:09.153Z,99.90
2019-01-10T12:08:38.629Z,99.90
2019-01-10T12:11:08.132Z,99.90
2019-01-10T12:13:37.598Z,99.90
2019-01-10T12:16:07.108Z,99.90
2019-01-10T12:18:36.597Z,99.90
2019-01-10T12:21:06.116Z,99.90
2019-01-10T12:23:35.596Z,99.90
2019-01-10T12:26:05.105Z,99.90
2019-01-10T12:28:34.582Z,99.90
2019-01-10T12:31:04.090Z,99.90
2019-01-10T12:33:33.926Z,99.90
2019-01-10T12:36:03.400Z,99.90
2019-01-10T12:38:32.969Z,99.90
2019-01-10T12:41:02.582Z,99.90
2019-01-10T12:43:32.045Z,99.90
2019-01-10T12:46:01.559Z,99.90
2019-01-10T12:48:31.024Z,99.90
2019-01-10T12:51:00.543Z,99.90
2019-01-10T12:53:30.013Z,99.90
2019-01-10T12:55:59.546Z,99.90
2019-01-10T12:58:29.047Z,99.90
2019-01-10T13:00:58.557Z,99.90
2019-01-10T13:03:28.153Z,99.90
2019-01-10T13:05:57.636Z,99.90
2019-01-10T13:08:27.105Z,99.90
2019-01-10T13:10:56.611Z,99.90
2019-01-10T13:13:26.080Z,99.90
2019-01-10T13:15:55.590Z,99.90
2019-01-10T13:18:44.120Z,99.90
2019-01-10T13:21:13.629Z,99.90
2019-01-10T13:23:43.114Z,99.90
2019-01-10T13:26:31.688Z,99.90
2019-01-10T13:29:20.190Z,99.90
2019-01-10T13:32:08.749Z,99.90
2019-01-10T13:34:57.393Z,99.90
2019-01-10T13:37:45.901Z,99.90
2019-01-10T13:40:34.453Z,99.90
2019-01-10T13:43:22.977Z,99.90
2019-01-10T13:46:11.525Z,99.90
2019-01-10T13:49:00.037Z,99.90
2019-01-10T13:51:48.573Z,99.90
2019-01-10T13:54:18.038Z,99.90
2019-01-10T13:56:47.613Z,99.90
2019-01-10T13:59:36.133Z,99.90
2019-01-10T14:02:24.685Z,99.90
2019-01-10T14:05:13.374Z,99.90
2019-01-10T14:08:01.888Z,99.90
2019-01-10T14:10:50.438Z,99.90
2019-01-10T14:13:38.940Z,99.90
2019-01-10T14:16:27.490Z,99.90
2019-01-10T14:18:56.996Z,99.90
2019-01-10T14:21:46.773Z,99.90
2019-01-10T14:24:35.705Z,99.90
2019-01-10T14:27:05.321Z,99.90
2019-01-10T14:29:53.850Z,99.90
2019-01-10T14:32:42.237Z,99.90
2019-01-10T14:35:30.873Z,99.50
2019-01-10T14:41:14.137Z,99.90
2019-01-10T14:43:43.641Z,99.90
2019-01-10T14:46:13.118Z,99.90
2019-01-10T14:48:42.656Z,99.90
2019-01-10T14:51:12.107Z,99.90
2019-01-10T14:53:41.588Z,99.90
2019-01-10T14:56:11.105Z,99.90
2019-01-10T14:58:40.609Z,99.90
2019-01-10T15:01:10.117Z,99.90
2019-01-10T15:03:39.604Z,99.90
2019-01-10T15:06:09.104Z,99.90
2019-01-10T15:08:38.698Z,99.60
2019-01-10T15:11:08.188Z,99.90
2019-01-10T15:13:37.696Z,99.70
2019-01-10T15:16:07.257Z,99.50
2019-01-10T15:18:36.774Z,99.90
2019-01-10T15:21:06.341Z,99.90
2019-01-10T15:23:36.577Z,99.50
2019-01-10T15:26:06.138Z,99.80
2019-01-10T15:28:35.677Z,99.30
2019-01-10T15:31:05.186Z,99.90
2019-01-10T15:33:34.672Z,99.80
2019-01-10T15:36:04.195Z,99.50
2019-01-10T15:38:33.654Z,99.90
2019-01-10T15:41:03.141Z,99.70
2019-01-10T15:43:32.644Z,99.70
2019-01-10T15:46:02.145Z,99.50
2019-01-10T15:48:31.632Z,99.20
2019-01-10T15:51:01.154Z,99.50
2019-01-10T15:53:30.711Z,99.90
2019-01-10T15:56:00.231Z,99.90
2019-01-10T15:58:29.746Z,99.60
2019-01-10T16:00:59.222Z,99.90
2019-01-10T16:03:28.841Z,99.90
2019-01-10T16:05:58.322Z,99.90
2019-01-10T16:08:27.840Z,99.90
2019-01-10T16:10:57.316Z,99.90
2019-01-10T16:13:26.822Z,99.90
2019-01-10T16:15:56.297Z,99.90
2019-01-10T16:18:25.848Z,99.90
2019-01-10T16:20:55.328Z,99.90
2019-01-10T16:23:24.793Z,99.90
2019-01-10T16:25:54.494Z,99.90
2019-01-10T16:28:24.009Z,99.90
2019-01-10T16:30:53.560Z,99.90
2019-01-10T16:33:23.085Z,99.90
2019-01-10T16:35:52.564Z,99.90
2019-01-10T16:38:22.153Z,99.90
2019-01-10T16:40:51.632Z,99.90
2019-01-10T16:43:21.109Z,99.90
2019-01-10T16:45:50.645Z,99.90
2019-01-10T16:48:20.120Z,99.90
2019-01-10T16:50:49.640Z,99.90
2019-01-10T16:53:19.193Z,99.60
2019-01-10T16:55:48.680Z,99.90
2019-01-10T16:58:18.176Z,99.50
2019-01-10T17:00:47.750Z,98.80
2019-01-10T17:03:17.269Z,98.70
2019-01-10T17:05:46.756Z,98.60
2019-01-10T17:08:16.464Z,98.70
2019-01-10T17:10:45.944Z,98.80
2019-01-10T17:13:15.441Z,99.00
2019-01-10T17:15:44.948Z,97.40
2019-01-10T17:18:14.540Z,97.00
2019-01-10T17:20:44.043Z,96.40
2019-01-10T17:23:13.604Z,97.10
2019-01-10T17:25:43.103Z,97.90
2019-01-10T17:28:12.586Z,97.50
2019-01-10T17:30:42.189Z,97.70
2019-01-10T17:33:11.694Z,96.70
2019-01-10T17:35:41.176Z,97.10
2019-01-10T17:38:10.674Z,97.40
2019-01-10T17:40:40.156Z,96.40
2019-01-10T17:43:09.759Z,96.40
2019-01-10T17:45:39.464Z,96.50
2019-01-10T17:48:10.888Z,95.70
2019-01-10T17:50:40.393Z,94.80
2019-01-10T17:53:09.872Z,95.70
2019-01-10T17:55:39.373Z,95.60
2019-01-10T17:58:08.981Z,96.40
2019-01-10T18:00:38.490Z,95.00
2019-01-10T18:03:07.972Z,94.60
2019-01-10T18:05:37.480Z,95.60
2019-01-10T18:08:07.072Z,95.40
2019-01-10T18:10:36.581Z,95.80
2019-01-10T18:13:06.066Z,95.30
2019-01-10T18:15:35.551Z,96.30
2019-01-10T18:18:05.169Z,96.30
2019-01-10T18:20:37.252Z,96.00
2019-01-10T18:23:07.277Z,96.40
2019-01-10T18:25:36.820Z,96.40
2019-01-10T18:28:06.487Z,96.10
2019-01-10T18:30:36.000Z,96.00
2019-01-10T18:33:05.707Z,95.30
2019-01-10T18:35:35.622Z,96.00
2019-01-10T18:38:05.404Z,95.30
2019-01-10T18:40:34.951Z,95.70
2019-01-10T18:43:04.539Z,96.10
2019-01-10T18:45:34.524Z,95.90
2019-01-10T18:48:04.200Z,95.50
2019-01-10T18:50:33.677Z,95.70
2019-01-10T18:53:03.181Z,96.00
2019-01-10T18:55:32.664Z,96.00
2019-01-10T18:58:02.223Z,96.60
2019-01-10T19:00:32.177Z,96.90
2019-01-10T19:03:02.013Z,97.50
2019-01-10T19:05:32.024Z,97.50
2019-01-10T19:08:01.529Z,97.50
2019-01-10T19:10:31.227Z,98.30
2019-01-10T19:13:00.733Z,98.10
2019-01-10T19:15:30.221Z,99.90
2019-01-10T19:18:03.390Z,99.80
2019-01-10T19:20:31.001Z,97.90
2019-01-10T19:23:01.979Z,97.80
2019-01-10T19:25:31.701Z,98.30
2019-01-10T19:28:01.286Z,99.10
2019-01-10T19:30:33.152Z,97.70
2019-01-10T19:33:02.636Z,97.30
2019-01-10T19:35:32.128Z,97.80
2019-01-10T19:38:02.061Z,97.50
2019-01-10T19:40:31.548Z,97.10
2019-01-10T19:43:01.045Z,97.90
2019-01-10T19:45:30.588Z,97.90
2019-01-10T19:48:00.062Z,96.80
2019-01-10T19:50:29.546Z,95.70
2019-01-10T19:52:59.074Z,97.10
2019-01-10T19:55:28.576Z,96.70
2019-01-10T19:57:58.068Z,97.00
2019-01-10T20:00:32.888Z,96.10
2019-01-10T20:03:02.408Z,95.30
2019-01-10T20:05:31.917Z,95.60
2019-01-10T20:08:01.444Z,96.60
2019-01-10T20:10:30.921Z,97.20
2019-01-10T20:13:00.427Z,97.70
2019-01-10T20:15:29.911Z,95.50
2019-01-10T20:17:59.412Z,95.10
2019-01-10T20:20:31.505Z,94.70
2019-01-10T20:23:01.157Z,94.30
2019-01-10T20:25:30.652Z,94.80
2019-01-10T20:28:00.162Z,95.90
2019-01-10T20:30:29.644Z,95.50
2019-01-10T20:32:59.166Z,95.60
2019-01-10T20:35:28.643Z,96.30
2019-01-10T20:37:58.129Z,96.50
2019-01-10T20:40:27.633Z,96.40
2019-01-10T20:42:57.096Z,96.00
2019-01-10T20:45:27.532Z,95.90
2019-01-10T20:51:01.144Z,96.00
2019-01-10T20:53:49.720Z,96.20
2019-01-10T20:56:38.243Z,96.10
2019-01-10T20:59:26.821Z,96.50
2019-01-10T21:02:10.829Z,96.40
2019-01-10T21:04:51.966Z,97.50
2019-01-10T21:07:33.197Z,96.80
2019-01-10T21:10:14.159Z,96.50
2019-01-10T21:12:55.238Z,96.40
2019-01-10T21:15:36.097Z,95.90
2019-01-10T21:18:28.660Z,95.80
2019-01-10T21:21:14.692Z,90.30
2019-01-10T21:26:51.671Z,91.60
2019-01-10T21:29:40.193Z,91.40
2019-01-10T21:32:28.749Z,91.90
2019-01-10T21:35:17.286Z,91.40
2019-01-10T21:38:05.850Z,92.70
2019-01-10T21:40:35.336Z,94.70
2019-01-10T21:43:04.859Z,94.70
2019-01-10T21:45:34.445Z,95.10
2019-01-10T21:48:04.071Z,95.60
2019-01-10T21:50:52.633Z,95.90
2019-01-10T21:53:41.189Z,96.50
2019-01-10T21:56:29.704Z,96.20
2019-01-10T21:59:37.330Z,95.40
2019-01-10T22:02:17.940Z,95.50
2019-01-10T22:04:47.487Z,95.50
2019-01-10T22:07:36.097Z,96.00
2019-01-10T22:10:06.346Z,96.30
2019-01-10T22:12:54.845Z,96.10
2019-01-10T22:15:24.546Z,95.90
2019-01-10T22:18:13.053Z,96.30
2019-01-10T22:21:01.617Z,96.40
2019-01-10T22:26:57.660Z,96.80
2019-01-10T22:32:15.601Z,96.30
2019-01-10T22:35:04.569Z,96.50
2019-01-10T22:37:53.145Z,96.80
2019-01-10T22:40:41.673Z,96.50
2019-01-10T22:43:11.192Z,96.10
2019-01-10T22:45:59.804Z,96.50
2019-01-10T22:48:29.280Z,96.40
2019-01-10T22:51:20.305Z,96.60
2019-01-10T22:54:08.820Z,96.60
2019-01-10T22:59:32.257Z,96.40
2019-01-10T23:02:20.812Z,96.30
2019-01-10T23:05:02.485Z,96.50
2019-01-10T23:07:43.920Z,96.50
2019-01-10T23:10:25.454Z,96.50
2019-01-10T23:12:54.993Z,96.90
2019-01-10T23:15:43.542Z,96.70
2019-01-10T23:18:54.305Z,96.50
2019-01-10T23:21:42.813Z,97.10
2019-01-10T23:24:31.361Z,96.50
2019-01-10T23:27:19.982Z,96.70
2019-01-10T23:30:08.903Z,96.80
2019-01-10T23:32:57.306Z,97.00
2019-01-10T23:35:45.866Z,96.30
2019-01-10T23:41:28.533Z,96.90
2019-01-10T23:43:58.073Z,96.50
2019-01-10T23:49:54.142Z,96.90
2019-01-10T23:52:42.696Z,96.70
2019-01-10T23:55:12.181Z,97.00
2019-01-10T23:58:00.748Z,96.60
